Berezovo Airport


Codes: USHB/EZV
Name: Berezovo Airport
City:
Country: Russia
Elevation: 98 ft.

Photos at Berezovo Airport


   Photos courtesy of SpottingLog. You can add your own sightings and photos by signing up for a free trial today.



No photos found.

Weather at Berezovo Airport


Time (UTC)DescriptionTempratureWindCloud coverageVisibilityPressureHumidity
13-Jun-2024 03:00Scattered Clouds16°C2 mph, SW47%10000m1012hPa84%
13-Jun-2024 06:00Broken Clouds20°C4 mph, SW63%10000m1012hPa70%
13-Jun-2024 09:00Overcast Clouds26°C7 mph, W100%10000m1012hPa46%
13-Jun-2024 12:00Overcast Clouds27°C7 mph, NW98%10000m1012hPa37%
13-Jun-2024 15:00Broken Clouds25°C2 mph, NW73%10000m1012hPa52%
13-Jun-2024 18:00Broken Clouds20°C4 mph, SE62%10000m1012hPa67%
13-Jun-2024 21:00Broken Clouds20°C7 mph, SE83%10000m1010hPa69%
14-Jun-2024 00:00Overcast Clouds19°C4 mph, SW90%10000m1010hPa73%
14-Jun-2024 03:00Overcast Clouds19°C7 mph, W100%10000m1010hPa80%
14-Jun-2024 06:00Broken Clouds26°C9 mph, W81%10000m1009hPa55%
14-Jun-2024 09:00Broken Clouds27°C11 mph, NW76%10000m1009hPa50%
14-Jun-2024 12:00Broken Clouds25°C9 mph, N69%10000m1009hPa56%
14-Jun-2024 15:00Light Rain19°C11 mph, NE28%10000m1010hPa78%
14-Jun-2024 18:00Light Rain16°C7 mph, N59%10000m1011hPa91%
14-Jun-2024 21:00Light Rain15°C4 mph, NE100%10000m1009hPa94%
15-Jun-2024 00:00Light Rain15°C4 mph, NE100%10000m1008hPa95%
15-Jun-2024 03:00Light Rain14°C9 mph, NE100%10000m1008hPa93%
15-Jun-2024 06:00Light Rain14°C11 mph, N100%10000m1008hPa91%
15-Jun-2024 09:00Light Rain11°C13 mph, NE100%10000m1010hPa92%
15-Jun-2024 12:00Light Rain12°C13 mph, NE100%10000m1011hPa90%
15-Jun-2024 15:00Moderate Rain10°C13 mph, NE100%10000m1011hPa95%
15-Jun-2024 18:00Overcast Clouds10°C13 mph, NE100%10000m1011hPa94%
15-Jun-2024 21:00Overcast Clouds10°C11 mph, NE100%10000m1011hPa92%
16-Jun-2024 00:00Overcast Clouds10°C11 mph, NE100%10000m1011hPa91%
16-Jun-2024 03:00Overcast Clouds11°C9 mph, E100%10000m1010hPa90%
16-Jun-2024 06:00Overcast Clouds12°C7 mph, E100%10000m1010hPa89%
16-Jun-2024 09:00Light Rain12°C2 mph, NE100%10000m1009hPa94%
16-Jun-2024 12:00Light Rain12°C4 mph, NW100%10000m1009hPa96%
16-Jun-2024 15:00Light Rain10°C9 mph, NW100%10000m1009hPa96%
16-Jun-2024 18:00Light Rain8°C13 mph, W100%10000m1009hPa95%
16-Jun-2024 21:00Overcast Clouds7°C13 mph, NW100%10000m1009hPa94%
17-Jun-2024 00:00Overcast Clouds8°C16 mph, NW100%10000m1009hPa91%
17-Jun-2024 03:00Light Rain7°C20 mph, NW100%10000m1010hPa89%
17-Jun-2024 06:00Moderate Rain7°C22 mph, NW100%6416m1010hPa91%
17-Jun-2024 09:00Moderate Rain7°C20 mph, NW100%10000m1013hPa91%
17-Jun-2024 12:00Light Rain8°C20 mph, NW100%10000m1015hPa90%
17-Jun-2024 15:00Light Rain9°C16 mph, N100%10000m1017hPa83%
17-Jun-2024 18:00Overcast Clouds7°C9 mph, NW100%10000m1018hPa89%
17-Jun-2024 21:00Broken Clouds6°C9 mph, NW70%10000m1019hPa91%
18-Jun-2024 00:00Scattered Clouds7°C9 mph, NW36%10000m1021hPa86%